METAR Data
IDs: Format: Raw Decoded Include TAF

Data at: 1608 UTC 03 Jul 2020

METAR for:KTZR (Columbus/Bolton Fld, OH, US)
Text:KTZR 031550Z 30010KT 10SM SKC 30/18 A3004
Temperature: 30.0°C ( 86°F)
Dewpoint: 18.0°C ( 64°F) [RH = 49%]
Pressure (altimeter):30.04 inches Hg (1017.4 mb)
Winds:from the WNW (300 degrees) at 12 MPH (10 knots; 5.1 m/s)
Visibility:10 or more sm (16+ km)
Ceiling:at least 12,000 feet AGL
Clouds:clear skies